Time;durP1;ratioP1;P1;durP2;ratioP2;P2;SDS_P1;SDS_P2;PMS_P1;PMS_P2;Temp;Humidity;BMP_temperature;BMP_pressure;BME280_temperature;BME280_humidity;BME280_pressure;Samples;Min_cycle;Max_cycle;Signal;HPM_P1;HPM_P2
2022/02/25 00:02:25;;;;;;;14.70;5.60;;;;;;;4.69;65.99;98540.16;105271;1269;61387;-78
2022/02/25 00:04:52;;;;;;;17.60;6.40;;;;;;;4.67;65.99;98541.13;105211;1270;70312;-78
2022/02/25 00:07:18;;;;;;;13.70;5.50;;;;;;;4.65;65.92;98539.45;105232;1270;61253;-78
2022/02/25 00:09:45;;;;;;;14.20;5.50;;;;;;;4.63;65.97;98540.78;105264;1270;61359;-77
2022/02/25 00:12:11;;;;;;;6.80;3.60;;;;;;;4.60;66.02;98535.96;105247;1270;61681;-76
2022/02/25 00:14:38;;;;;;;6.90;3.50;;;;;;;4.68;66.28;98534.18;105271;1270;61326;-76
2022/02/25 00:17:04;;;;;;;7.50;3.00;;;;;;;4.80;66.33;98527.93;105256;1270;61317;-77
2022/02/25 00:19:30;;;;;;;4.60;3.10;;;;;;;4.93;66.23;98519.73;105243;1269;61286;-76
2022/02/25 00:21:57;;;;;;;4.40;2.80;;;;;;;5.05;65.98;98520.52;105233;1270;61415;-76
2022/02/25 00:24:23;;;;;;;4.70;2.90;;;;;;;5.22;65.69;98522.11;105288;1270;60043;-75
2022/02/25 00:26:50;;;;;;;5.30;3.20;;;;;;;5.36;65.46;98523.48;105292;1270;61372;-79
2022/02/25 00:29:16;;;;;;;8.20;4.40;;;;;;;5.42;65.22;98524.75;105278;1270;61305;-79
2022/02/25 00:31:43;;;;;;;8.70;4.50;;;;;;;5.42;64.61;98523.33;105262;1270;61254;-76
2022/02/25 00:34:10;;;;;;;13.20;5.20;;;;;;;5.39;64.32;98526.65;105291;1270;61259;-76
2022/02/25 00:36:36;;;;;;;11.20;7.20;;;;;;;5.35;64.12;98522.66;105242;1270;61420;-77
2022/02/25 00:39:03;;;;;;;11.30;5.60;;;;;;;5.27;63.97;98529.36;105263;1270;61321;-77
2022/02/25 00:41:30;;;;;;;10.40;5.50;;;;;;;5.21;63.84;98528.98;105543;1269;69693;-78
2022/02/25 00:43:56;;;;;;;9.40;5.10;;;;;;;5.17;63.77;98526.06;105295;1269;73417;-76
2022/02/25 00:46:23;;;;;;;8.40;5.00;;;;;;;5.12;63.87;98521.90;105267;1270;61328;-77
2022/02/25 00:48:49;;;;;;;9.80;5.00;;;;;;;5.10;63.98;98525.17;105212;1269;61357;-78
2022/02/25 00:51:16;;;;;;;7.10;4.50;;;;;;;5.06;64.13;98523.29;105267;1270;61375;-78
2022/02/25 00:53:43;;;;;;;9.80;4.40;;;;;;;4.99;64.20;98519.73;104700;1270;729972;-78
2022/02/25 00:56:09;;;;;;;8.20;4.70;;;;;;;4.92;64.11;98517.65;105057;1270;72650;-77
2022/02/25 00:58:36;;;;;;;7.50;4.60;;;;;;;4.87;64.10;98519.70;105269;1270;61382;-77
2022/02/25 01:01:03;;;;;;;9.10;4.80;;;;;;;4.83;64.16;98515.48;105273;1270;61168;-77
2022/02/25 01:03:29;;;;;;;9.10;5.00;;;;;;;4.80;64.15;98513.52;105222;1270;75437;-77
2022/02/25 01:05:55;;;;;;;10.90;6.10;;;;;;;4.79;63.88;98514.99;105245;1269;61282;-77
2022/02/25 01:08:22;;;;;;;13.20;6.90;;;;;;;4.78;63.96;98515.21;105254;1270;61244;-78
2022/02/25 01:10:48;;;;;;;18.20;11.30;;;;;;;4.76;64.01;98515.84;104535;1270;1003750;-78
2022/02/25 01:13:15;;;;;;;15.20;9.90;;;;;;;4.73;63.97;98515.80;105240;1270;61259;-77
2022/02/25 01:15:41;;;;;;;13.90;8.00;;;;;;;4.72;64.20;98518.00;105286;1270;61405;-78
2022/02/25 01:18:08;;;;;;;10.40;6.10;;;;;;;4.70;64.35;98519.70;105236;1270;61378;-78
2022/02/25 01:20:34;;;;;;;11.10;5.60;;;;;;;4.70;64.35;98520.74;105231;1270;61265;-77
2022/02/25 01:23:01;;;;;;;8.00;4.60;;;;;;;4.71;64.40;98522.96;105247;1270;61424;-78
2022/02/25 01:25:27;;;;;;;8.10;4.90;;;;;;;4.75;64.51;98522.40;105244;1270;61271;-77
2022/02/25 01:27:54;;;;;;;6.00;4.60;;;;;;;4.78;64.65;98525.42;105255;1270;61348;-78
2022/02/25 01:30:20;;;;;;;6.70;4.10;;;;;;;4.81;64.55;98527.17;105244;1270;61254;-77
2022/02/25 01:32:47;;;;;;;7.70;4.20;;;;;;;4.87;64.57;98526.40;105228;1270;61376;-77
2022/02/25 01:35:13;;;;;;;6.50;4.30;;;;;;;4.89;64.67;98528.72;105233;1270;61388;-77
2022/02/25 01:37:40;;;;;;;8.40;4.60;;;;;;;4.89;64.67;98526.62;105295;1270;61257;-77
2022/02/25 01:40:08;;;;;;;7.20;3.80;;;;;;;4.89;64.70;98522.77;105262;1270;61374;-77
2022/02/25 01:42:45;;;;;;;8.40;4.00;;;;;;;4.88;64.74;98521.79;105236;1270;69161;-78
2022/02/25 01:45:12;;;;;;;10.20;4.10;;;;;;;4.86;64.69;98520.60;105345;1270;72776;-78
2022/02/25 01:47:38;;;;;;;9.80;4.60;;;;;;;4.86;64.72;98526.25;105217;1270;61323;-77
2022/02/25 01:50:05;;;;;;;6.20;3.80;;;;;;;4.85;64.72;98521.89;105286;1270;61286;-77
2022/02/25 01:52:32;;;;;;;8.40;4.30;;;;;;;4.88;64.75;98524.39;104794;1273;76071;-77
2022/02/25 01:54:59;;;;;;;8.60;4.20;;;;;;;4.93;64.82;98514.47;105267;1270;69156;-77
2022/02/25 01:57:26;;;;;;;7.50;3.30;;;;;;;4.99;64.76;98512.36;105262;1270;75156;-77
2022/02/25 01:59:52;;;;;;;8.00;4.00;;;;;;;5.03;64.70;98510.57;105271;1269;61333;-75
2022/02/25 02:02:19;;;;;;;7.00;4.60;;;;;;;5.05;64.58;98510.83;105276;1269;61171;-77
2022/02/25 02:04:45;;;;;;;7.50;4.40;;;;;;;5.06;64.55;98511.13;105290;1270;61302;-77
2022/02/25 02:07:12;;;;;;;6.30;3.60;;;;;;;5.07;64.58;98505.25;105312;1270;61269;-77
2022/02/25 02:09:38;;;;;;;7.30;5.10;;;;;;;5.10;64.49;98503.54;105232;1270;61169;-77
2022/02/25 02:12:06;;;;;;;9.90;5.70;;;;;;;5.11;64.48;98504.03;105315;1270;61162;-77
2022/02/25 02:14:32;;;;;;;8.00;5.10;;;;;;;5.11;64.51;98501.02;105378;1270;61256;-77
2022/02/25 02:16:59;;;;;;;8.10;5.30;;;;;;;5.10;64.44;98501.26;105381;1270;61793;-79
2022/02/25 02:19:28;;;;;;;10.20;4.80;;;;;;;5.08;64.42;98502.95;105350;1270;61399;-77
2022/02/25 02:21:57;;;;;;;8.80;6.00;;;;;;;5.05;64.42;98505.55;105108;1270;71298;-77
2022/02/25 02:24:24;;;;;;;10.70;6.40;;;;;;;5.00;64.44;98508.08;105108;1270;61305;-77
2022/02/25 02:26:53;;;;;;;10.80;6.30;;;;;;;4.95;64.46;98504.46;105487;1270;61227;-78
2022/02/25 02:29:20;;;;;;;7.90;5.70;;;;;;;4.92;64.50;98501.13;105656;1270;75434;-77
2022/02/25 02:31:47;;;;;;;6.50;4.40;;;;;;;4.90;64.58;98501.95;105735;1270;69248;-77
2022/02/25 02:34:15;;;;;;;7.00;4.10;;;;;;;4.95;64.57;98503.95;105849;1270;73392;-77
2022/02/25 02:36:43;;;;;;;6.90;4.90;;;;;;;4.97;64.60;98502.43;106355;1268;60429;-76
2022/02/25 02:39:11;;;;;;;9.70;4.80;;;;;;;4.95;64.66;98501.86;107815;1271;60740;-77
2022/02/25 02:41:40;;;;;;;10.20;5.60;;;;;;;4.92;64.68;98502.36;108271;1270;75473;-74
2022/02/25 02:44:07;;;;;;;10.20;5.30;;;;;;;4.88;64.83;98500.81;107847;1270;69486;-77
2022/02/25 02:46:35;;;;;;;10.00;5.50;;;;;;;4.84;64.78;98501.02;108143;1270;73676;-77
2022/02/25 02:49:02;;;;;;;10.20;5.10;;;;;;;4.80;64.92;98502.27;105342;1270;61357;-76
2022/02/25 02:51:32;;;;;;;9.60;5.80;;;;;;;4.75;64.96;98505.66;105296;1270;61148;-75
2022/02/25 02:53:59;;;;;;;9.40;6.30;;;;;;;4.70;65.05;98504.38;105272;1270;75338;-77
2022/02/25 02:56:25;;;;;;;7.50;6.70;;;;;;;4.63;65.15;98498.73;105260;1270;69363;-77
2022/02/25 02:58:55;;;;;;;7.20;5.50;;;;;;;4.55;65.22;98506.55;105260;1270;73695;-76
2022/02/25 03:01:24;;;;;;;7.90;5.50;;;;;;;4.45;65.38;98505.79;105078;1270;61302;-77
2022/02/25 03:03:51;;;;;;;11.80;4.80;;;;;;;4.35;65.52;98504.37;105031;1270;61171;-77
2022/02/25 03:06:18;;;;;;;10.30;5.80;;;;;;;4.25;65.65;98509.96;105261;1270;76695;-77
2022/02/25 03:08:45;;;;;;;10.50;6.20;;;;;;;4.17;65.77;98515.98;105248;1270;68263;-76
2022/02/25 03:11:13;;;;;;;10.30;6.00;;;;;;;4.08;65.91;98513.41;105261;1270;73292;-77
2022/02/25 03:13:40;;;;;;;8.80;5.60;;;;;;;4.00;65.99;98508.15;105336;1269;61364;-75
2022/02/25 03:16:06;;;;;;;12.60;6.50;;;;;;;3.92;66.15;98502.55;105277;1269;61299;-78
2022/02/25 03:18:32;;;;;;;8.50;5.50;;;;;;;3.85;66.38;98497.28;105302;1270;61362;-77
2022/02/25 03:20:59;;;;;;;9.50;5.10;;;;;;;3.77;66.50;98488.55;105322;1270;61384;-78
2022/02/25 03:23:26;;;;;;;10.00;5.00;;;;;;;3.69;66.75;98492.91;105259;1270;61175;-77
2022/02/25 03:25:52;;;;;;;9.50;5.20;;;;;;;3.65;67.03;98507.22;105289;1270;61336;-76
2022/02/25 03:28:19;;;;;;;11.20;5.80;;;;;;;3.63;67.29;98511.13;105260;1270;61392;-77
2022/02/25 03:30:45;;;;;;;11.40;5.60;;;;;;;3.65;67.42;98522.29;105236;1270;61251;-77
2022/02/25 03:33:12;;;;;;;12.30;6.40;;;;;;;3.67;67.34;98524.49;105021;1270;73206;-76
2022/02/25 03:35:38;;;;;;;11.00;5.80;;;;;;;3.67;67.37;98528.52;105209;1270;61387;-78
2022/02/25 03:38:05;;;;;;;13.40;6.70;;;;;;;3.65;67.45;98532.11;105281;1270;61331;-78
2022/02/25 03:40:32;;;;;;;12.10;6.10;;;;;;;3.69;67.54;98541.46;105262;1270;61265;-78
2022/02/25 03:42:59;;;;;;;9.80;6.40;;;;;;;3.72;67.56;98547.44;105248;1270;75175;-78
2022/02/25 03:45:26;;;;;;;12.80;6.80;;;;;;;3.74;67.60;98547.71;105254;1270;69151;-78
2022/02/25 03:47:52;;;;;;;9.50;6.00;;;;;;;3.71;67.54;98551.00;104935;1270;72809;-78
2022/02/25 03:50:19;;;;;;;13.40;5.70;;;;;;;3.66;67.66;98551.60;105276;1270;61168;-78
2022/02/25 03:52:46;;;;;;;8.80;5.50;;;;;;;3.61;67.69;98554.64;105226;1270;61379;-78
2022/02/25 03:55:12;;;;;;;12.20;6.10;;;;;;;3.55;67.73;98564.75;105265;1270;75156;-78
2022/02/25 03:57:40;;;;;;;13.40;6.80;;;;;;;3.49;67.92;98559.73;105252;1270;61231;-78
2022/02/25 04:00:08;;;;;;;12.80;7.30;;;;;;;3.44;68.00;98565.59;104921;1270;74212;-78
2022/02/25 04:02:34;;;;;;;14.30;8.20;;;;;;;3.37;68.08;98569.92;105660;1270;61159;-78
2022/02/25 04:05:01;;;;;;;12.70;5.80;;;;;;;3.30;68.38;98578.52;105225;1270;61289;-78
2022/02/25 04:07:27;;;;;;;8.10;5.80;;;;;;;3.25;68.48;98584.66;105258;1270;61387;-78
2022/02/25 04:09:54;;;;;;;11.30;6.20;;;;;;;3.21;68.64;98585.36;105247;1270;61182;-78
2022/02/25 04:12:20;;;;;;;10.20;5.80;;;;;;;3.17;68.81;98585.23;105229;1270;61267;-78
2022/02/25 04:14:47;;;;;;;8.60;5.30;;;;;;;3.11;68.94;98587.94;105067;1270;61359;-76
2022/02/25 04:17:18;;;;;;;12.80;5.70;;;;;;;3.08;69.41;98585.77;105287;1270;61349;-78
2022/02/25 04:19:46;;;;;;;9.40;5.00;;;;;;;3.07;69.46;98582.31;105234;1270;76316;-75
2022/02/25 04:22:13;;;;;;;11.50;4.80;;;;;;;3.06;69.73;98584.44;105252;1270;69244;-78
2022/02/25 04:24:39;;;;;;;15.50;7.50;;;;;;;3.09;69.91;98584.16;105187;1270;61345;-78
2022/02/25 04:27:06;;;;;;;14.00;6.20;;;;;;;3.14;70.06;98585.55;105300;1270;61281;-77
2022/02/25 04:29:33;;;;;;;9.70;5.20;;;;;;;3.24;70.31;98586.31;105277;1270;61194;-76
2022/02/25 04:31:59;;;;;;;7.10;5.00;;;;;;;3.39;70.43;98587.06;105233;1270;61285;-78
2022/02/25 04:34:26;;;;;;;8.10;4.70;;;;;;;3.54;70.39;98591.48;104977;1270;61332;-77
2022/02/25 04:36:53;;;;;;;6.60;4.90;;;;;;;3.65;70.32;98594.17;105219;1270;72379;-78
2022/02/25 04:39:20;;;;;;;6.20;4.10;;;;;;;3.70;70.35;98599.69;105232;1270;61374;-74
2022/02/25 04:41:47;;;;;;;7.90;4.30;;;;;;;3.82;70.35;98602.86;105236;1270;61271;-78
2022/02/25 04:44:13;;;;;;;8.20;3.80;;;;;;;4.00;70.33;98609.77;105231;1270;61328;-80
2022/02/25 04:46:40;;;;;;;8.00;5.00;;;;;;;4.22;70.03;98614.73;105189;1270;61342;-75
2022/02/25 04:49:06;;;;;;;8.80;5.40;;;;;;;4.34;69.71;98619.55;105226;1270;73260;-77
2022/02/25 04:51:33;;;;;;;8.70;4.90;;;;;;;4.39;69.48;98627.80;105232;1270;61237;-77
2022/02/25 04:54:00;;;;;;;7.50;4.70;;;;;;;4.44;69.35;98631.27;105016;1270;61784;-77
2022/02/25 04:56:27;;;;;;;10.20;4.60;;;;;;;4.53;69.14;98635.23;104838;1270;76315;-77
2022/02/25 04:58:53;;;;;;;7.10;4.10;;;;;;;4.63;69.02;98635.62;105206;1270;61340;-76
2022/02/25 05:01:20;;;;;;;8.80;4.70;;;;;;;4.76;69.03;98636.75;105218;1270;73217;-76
2022/02/25 05:03:46;;;;;;;8.70;4.50;;;;;;;4.90;69.03;98642.95;105217;1270;61360;-77
2022/02/25 05:06:13;;;;;;;5.60;3.70;;;;;;;5.00;68.87;98642.97;105243;1270;61365;-77
2022/02/25 05:08:39;;;;;;;8.00;3.80;;;;;;;5.12;68.63;98649.77;105286;1270;61253;-78
2022/02/25 05:11:06;;;;;;;6.40;3.80;;;;;;;5.24;68.47;98657.74;105265;1270;61276;-76
2022/02/25 05:13:32;;;;;;;7.00;4.20;;;;;;;5.33;68.09;98662.60;104891;1270;61202;-77
2022/02/25 05:21:30;;;;;;;7.20;4.30;;;;;;;5.67;67.14;98680.90;105217;1270;75208;-77
2022/02/25 05:23:56;;;;;;;9.20;3.60;;;;;;;5.71;67.10;98688.82;105237;1270;61252;-77
2022/02/25 05:26:23;;;;;;;8.80;4.70;;;;;;;5.74;66.60;98694.16;104384;1271;1002571;-77
2022/02/25 05:28:49;;;;;;;8.80;4.90;;;;;;;5.78;66.33;98697.29;105227;1270;61499;-77
2022/02/25 05:31:16;;;;;;;8.70;4.90;;;;;;;5.78;66.36;98697.27;105286;1267;61522;-77
2022/02/25 05:33:43;;;;;;;10.50;5.30;;;;;;;5.77;66.44;98697.71;105259;1270;76583;-77
2022/02/25 05:36:09;;;;;;;10.20;5.50;;;;;;;5.76;66.12;98705.15;105258;1270;70222;-77
2022/02/25 05:38:36;;;;;;;10.70;5.90;;;;;;;5.77;66.31;98717.29;105012;1272;61256;-76
2022/02/25 05:41:03;;;;;;;11.20;7.10;;;;;;;5.74;66.43;98723.59;105244;1269;61473;-77
2022/02/25 05:43:30;;;;;;;12.40;7.30;;;;;;;5.71;66.42;98718.08;105293;1270;61194;-77
2022/02/25 05:45:56;;;;;;;10.50;6.70;;;;;;;5.68;66.40;98727.41;105221;1270;61180;-77
2022/02/25 05:48:23;;;;;;;13.70;7.60;;;;;;;5.67;66.37;98748.09;105263;1270;61286;-77
2022/02/25 05:50:49;;;;;;;15.80;7.80;;;;;;;5.66;66.30;98753.05;105216;1269;61302;-78
2022/02/25 05:53:16;;;;;;;16.20;8.00;;;;;;;5.66;66.36;98755.54;105244;1270;61256;-76
2022/02/25 05:55:42;;;;;;;13.10;7.90;;;;;;;5.65;66.42;98757.85;105262;1270;61368;-77
2022/02/25 05:58:09;;;;;;;14.70;7.90;;;;;;;5.64;66.58;98754.77;105004;1271;61191;-78
2022/02/25 06:00:35;;;;;;;15.00;7.90;;;;;;;5.62;66.46;98761.23;105259;1270;61195;-76
2022/02/25 06:03:02;;;;;;;13.30;7.90;;;;;;;5.60;66.57;98774.33;105012;1270;74754;-79
2022/02/25 06:05:29;;;;;;;15.30;8.10;;;;;;;5.59;66.63;98782.33;105271;1270;61395;-76
2022/02/25 06:07:59;;;;;;;14.60;7.40;;;;;;;5.57;66.72;98786.13;105253;1270;61339;-77
2022/02/25 06:10:26;;;;;;;18.20;10.20;;;;;;;5.58;66.58;98798.64;105253;1270;76255;-77
2022/02/25 06:12:53;;;;;;;13.30;7.10;;;;;;;5.57;66.79;98809.59;105282;1270;69579;-77
2022/02/25 06:15:20;;;;;;;13.50;7.20;;;;;;;5.57;67.28;98810.28;105244;1270;73902;-77
2022/02/25 06:17:48;;;;;;;13.10;7.10;;;;;;;5.56;67.82;98823.74;105236;1270;61177;-77
2022/02/25 06:20:17;;;;;;;10.60;7.30;;;;;;;5.53;68.39;98834.79;105326;1269;61140;-76
2022/02/25 06:22:44;;;;;;;12.30;7.40;;;;;;;5.48;69.56;98838.73;105271;1269;75647;-76
2022/02/25 06:25:11;;;;;;;13.10;7.90;;;;;;;5.41;70.18;98853.16;105372;1270;69208;-79
2022/02/25 06:27:38;;;;;;;7.50;5.40;;;;;;;5.34;72.52;98867.27;105383;1271;74093;-75
2022/02/25 06:30:07;;;;;;;7.20;2.60;;;;;;;5.20;76.02;98885.87;105532;1270;61497;-77
2022/02/25 06:32:33;;;;;;;2.30;1.50;;;;;;;4.90;78.42;98909.61;105345;1270;62309;-77
2022/02/25 06:35:00;;;;;;;2.10;1.90;;;;;;;4.59;79.87;98929.46;105271;1269;74858;-76
2022/02/25 06:37:28;;;;;;;2.90;2.00;;;;;;;4.33;82.41;98942.38;105317;1270;68930;-76
2022/02/25 06:39:56;;;;;;;2.60;2.00;;;;;;;4.11;82.65;98960.70;105263;1270;73553;-77
2022/02/25 06:42:23;;;;;;;3.00;1.90;;;;;;;3.90;85.34;98968.94;105403;1270;61256;-75
2022/02/25 06:44:50;;;;;;;6.40;4.40;;;;;;;3.67;87.11;98973.54;105274;1270;61839;-73
2022/02/25 06:47:18;;;;;;;4.20;3.20;;;;;;;3.47;88.82;98982.02;105223;1270;75022;-75
2022/02/25 06:49:45;;;;;;;4.60;3.70;;;;;;;3.33;90.58;98989.24;105399;1270;69304;-74
2022/02/25 06:52:12;;;;;;;3.70;3.00;;;;;;;3.23;90.99;98989.63;105274;1270;73338;-74
2022/02/25 06:54:39;;;;;;;4.90;3.10;;;;;;;3.16;89.86;99001.64;105265;1270;61349;-75
2022/02/25 06:57:06;;;;;;;3.70;3.10;;;;;;;3.14;90.29;99010.14;105211;1270;61223;-74
2022/02/25 06:59:32;;;;;;;5.60;3.50;;;;;;;3.12;91.75;99012.82;105257;1270;75658;-75
2022/02/25 07:01:58;;;;;;;7.50;4.30;;;;;;;3.08;92.32;99007.38;104968;1273;61344;-74
2022/02/25 07:04:25;;;;;;;5.50;4.90;;;;;;;3.03;92.36;99006.30;105227;1270;61256;-75
2022/02/25 07:06:54;;;;;;;10.50;6.60;;;;;;;3.04;92.10;99008.20;105231;1270;61217;-72
2022/02/25 07:09:21;;;;;;;9.00;6.10;;;;;;;3.05;93.37;99019.05;105253;1270;61154;-74
2022/02/25 07:11:49;;;;;;;11.30;5.80;;;;;;;3.07;92.27;99025.84;105252;1270;73565;-74
2022/02/25 07:14:16;;;;;;;6.40;5.10;;;;;;;3.06;93.97;99026.05;105275;1270;68218;-76
2022/02/25 07:16:43;;;;;;;8.00;5.90;;;;;;;3.02;94.47;99027.93;105471;1270;73541;-75
2022/02/25 07:19:10;;;;;;;5.10;4.60;;;;;;;3.00;94.72;99031.70;105232;1270;61401;-77
2022/02/25 07:21:36;;;;;;;7.30;6.20;;;;;;;3.00;94.52;99043.99;104484;1270;1002589;-76
2022/02/25 07:24:03;;;;;;;7.20;6.40;;;;;;;2.99;94.32;99053.88;105248;1270;76340;-72
2022/02/25 07:26:30;;;;;;;6.80;6.20;;;;;;;2.97;94.49;99064.98;105244;1270;68133;-75
2022/02/25 07:28:57;;;;;;;7.10;6.30;;;;;;;2.96;94.50;99075.55;105300;1270;73155;-75
2022/02/25 07:31:24;;;;;;;7.80;7.10;;;;;;;2.93;95.01;99079.54;105486;1269;61330;-76
2022/02/25 07:33:51;;;;;;;9.40;8.50;;;;;;;2.88;95.03;99084.95;105032;1271;61429;-76
2022/02/25 07:36:18;;;;;;;10.60;8.80;;;;;;;2.85;95.59;99084.88;105326;1270;61332;-76
2022/02/25 07:38:45;;;;;;;10.10;9.10;;;;;;;2.82;97.30;99083.21;105309;1270;69381;-78
2022/02/25 07:41:11;;;;;;;8.40;7.70;;;;;;;2.81;98.04;99087.13;105492;1270;72711;-74
2022/02/25 07:43:38;;;;;;;9.40;7.90;;;;;;;2.78;97.96;99090.02;105231;1270;61364;-75
2022/02/25 07:46:04;;;;;;;9.20;6.90;;;;;;;2.77;98.02;99099.02;105262;1270;61272;-76
2022/02/25 07:48:31;;;;;;;8.10;6.50;;;;;;;2.75;97.43;99099.27;105320;1270;61287;-75
2022/02/25 07:50:58;;;;;;;8.30;7.30;;;;;;;2.76;97.04;99098.16;105151;1270;61377;-75
2022/02/25 07:53:25;;;;;;;5.40;4.60;;;;;;;2.78;97.67;99102.83;105326;1271;72897;-75
2022/02/25 07:55:53;;;;;;;8.50;5.90;;;;;;;2.77;97.05;99106.53;105260;1270;61221;-77
2022/02/25 07:58:20;;;;;;;5.90;4.90;;;;;;;2.78;97.08;99112.11;105344;1270;61349;-76
2022/02/25 08:00:47;;;;;;;7.10;5.70;;;;;;;2.78;97.22;99117.02;105342;1270;74308;-73
2022/02/25 08:03:13;;;;;;;6.40;4.80;;;;;;;2.78;97.12;99113.52;105354;1270;61350;-74
2022/02/25 08:05:40;;;;;;;6.10;5.10;;;;;;;2.80;97.05;99113.83;105328;1270;61284;-76
2022/02/25 08:08:07;;;;;;;6.10;4.80;;;;;;;2.82;97.17;99115.33;105371;1270;61663;-77
2022/02/25 08:10:35;;;;;;;6.30;5.40;;;;;;;2.84;97.06;99121.93;105403;1270;61349;-75
2022/02/25 08:13:04;;;;;;;6.00;5.30;;;;;;;2.84;96.97;99127.36;105568;1270;75417;-76
2022/02/25 08:15:33;;;;;;;10.30;7.30;;;;;;;2.84;97.00;99137.36;105424;1270;68417;-74
2022/02/25 08:18:01;;;;;;;10.90;9.00;;;;;;;2.85;97.31;99138.02;105411;1271;71296;-76
2022/02/25 08:20:28;;;;;;;11.10;8.90;;;;;;;2.88;97.14;99140.22;105353;1270;61224;-74
2022/02/25 08:22:57;;;;;;;11.70;9.80;;;;;;;2.91;97.17;99140.12;105353;1271;61206;-73
2022/02/25 08:25:24;;;;;;;10.10;8.70;;;;;;;2.95;97.30;99143.48;105379;1270;75128;-74
2022/02/25 08:27:50;;;;;;;11.40;9.10;;;;;;;2.98;97.24;99140.23;105406;1269;69595;-73
2022/02/25 08:30:17;;;;;;;12.90;9.10;;;;;;;3.03;97.21;99142.35;105370;1270;61374;-75
2022/02/25 08:32:46;;;;;;;10.40;8.20;;;;;;;3.10;97.18;99153.70;105402;1270;61236;-72
2022/02/25 08:35:15;;;;;;;10.90;7.20;;;;;;;3.16;97.06;99154.54;105533;1270;61131;-72
2022/02/25 08:37:44;;;;;;;10.00;7.20;;;;;;;3.24;96.98;99155.48;105522;1270;75331;-75
2022/02/25 08:40:14;;;;;;;8.70;5.70;;;;;;;3.35;96.88;99160.74;105664;1270;69165;-74
2022/02/25 08:42:41;;;;;;;7.70;5.60;;;;;;;3.40;96.90;99160.06;105507;1270;73410;-73
2022/02/25 08:45:10;;;;;;;8.80;6.10;;;;;;;3.42;96.68;99159.95;106097;1270;61237;-73
2022/02/25 08:47:36;;;;;;;8.60;6.30;;;;;;;3.50;96.80;99162.83;106744;1270;61191;-73
2022/02/25 08:50:03;;;;;;;9.40;7.50;;;;;;;3.56;96.59;99170.20;106545;1270;61199;-73
2022/02/25 08:52:30;;;;;;;11.30;7.40;;;;;;;3.58;96.62;99163.27;106251;1271;69186;-73
2022/02/25 08:54:56;;;;;;;13.30;8.70;;;;;;;3.59;96.32;99167.44;105522;1271;61515;-74
2022/02/25 08:57:23;;;;;;;13.60;10.10;;;;;;;3.66;96.25;99165.23;105397;1270;61390;-75
2022/02/25 08:59:49;;;;;;;14.10;10.40;;;;;;;3.76;96.44;99168.58;105377;1270;61280;-75
2022/02/25 09:02:16;;;;;;;13.00;10.90;;;;;;;3.86;96.16;99164.00;105396;1270;61276;-75
2022/02/25 09:04:43;;;;;;;11.90;10.00;;;;;;;3.96;96.03;99168.02;105384;1270;61680;-77
2022/02/25 09:07:10;;;;;;;11.50;9.30;;;;;;;4.03;95.70;99170.91;105352;1270;73292;-74
2022/02/25 09:09:37;;;;;;;12.10;9.70;;;;;;;4.07;95.41;99170.42;105349;1269;61296;-73
2022/02/25 09:12:04;;;;;;;11.00;8.10;;;;;;;4.14;95.26;99172.09;105337;1271;61272;-73
2022/02/25 09:14:30;;;;;;;11.40;8.30;;;;;;;4.17;95.07;99180.77;105349;1270;75077;-76
2022/02/25 09:17:37;;;;;;;12.10;7.90;;;;;;;4.16;94.78;99180.48;105303;1270;61340;-76
2022/02/25 09:20:06;;;;;;;9.90;7.10;;;;;;;4.01;94.82;99187.36;105340;1270;73215;-73
2022/02/25 09:22:34;;;;;;;9.00;6.90;;;;;;;3.90;94.86;99191.11;105640;1270;61258;-73
2022/02/25 09:25:00;;;;;;;10.10;7.10;;;;;;;3.79;95.03;99190.63;105368;1270;61979;-74
2022/02/25 09:27:28;;;;;;;10.40;8.80;;;;;;;3.70;95.23;99196.39;105347;1270;61267;-73
2022/02/25 09:29:56;;;;;;;13.90;9.60;;;;;;;3.62;95.47;99201.60;105380;1271;69354;-73
2022/02/25 09:32:23;;;;;;;14.70;10.90;;;;;;;3.54;95.82;99208.56;105307;1270;73383;-74
2022/02/25 09:34:49;;;;;;;13.20;11.10;;;;;;;3.48;95.98;99214.52;105295;1270;61383;-74
2022/02/25 09:37:16;;;;;;;15.00;11.80;;;;;;;3.44;96.15;99214.52;105328;1270;61311;-73
2022/02/25 09:39:43;;;;;;;15.50;12.50;;;;;;;3.39;96.18;99216.27;105318;1270;61282;-74
2022/02/25 09:42:09;;;;;;;17.60;13.20;;;;;;;3.39;96.37;99215.22;105319;1271;69951;-73
2022/02/25 09:44:36;;;;;;;19.90;14.80;;;;;;;3.43;96.46;99211.91;105207;1270;74656;-75
2022/02/25 09:47:03;;;;;;;22.60;18.90;;;;;;;3.51;96.58;99217.98;105042;1271;61263;-74
2022/02/25 09:49:30;;;;;;;18.10;15.20;;;;;;;3.59;96.46;99216.98;105313;1270;61237;-74
2022/02/25 09:51:57;;;;;;;19.10;16.10;;;;;;;3.71;96.28;99218.67;105296;1270;74202;-73
2022/02/25 09:54:24;;;;;;;20.70;17.40;;;;;;;3.90;96.07;99216.56;105337;1270;70675;-74
2022/02/25 09:56:50;;;;;;;20.30;18.10;;;;;;;4.09;95.86;99214.48;105263;1270;61273;-73
2022/02/25 09:59:18;;;;;;;19.90;16.40;;;;;;;4.29;95.65;99217.26;105316;1270;61298;-74
2022/02/25 10:01:49;;;;;;;22.40;16.60;;;;;;;4.46;95.40;99222.75;105337;1270;62251;-73
2022/02/25 10:04:25;;;;;;;17.70;15.60;;;;;;;4.56;95.13;99218.48;105155;1271;75383;-72
2022/02/25 10:06:51;;;;;;;18.60;16.40;;;;;;;4.59;94.90;99215.73;105305;1271;69348;-76
2022/02/25 10:09:33;;;;;;;17.60;15.10;;;;;;;4.69;95.00;99218.19;105281;1271;71563;-75
2022/02/25 10:12:06;;;;;;;20.00;15.20;;;;;;;4.79;94.85;99209.48;105263;1271;61344;-75
2022/02/25 10:14:38;;;;;;;18.50;15.00;;;;;;;4.87;94.81;99211.65;105366;1271;61377;-75
2022/02/25 10:17:09;;;;;;;17.10;14.80;;;;;;;4.94;94.50;99211.70;105291;1271;76164;-75
2022/02/25 10:19:36;;;;;;;19.00;16.40;;;;;;;4.92;94.12;99219.54;105241;1270;69207;-75
2022/02/25 10:22:18;;;;;;;20.90;18.50;;;;;;;4.90;94.34;99217.69;105282;1270;73432;-75
2022/02/25 10:24:45;;;;;;;20.80;15.00;;;;;;;4.88;94.29;99215.47;105622;1270;61396;-76
2022/02/25 10:27:19;;;;;;;19.10;14.90;;;;;;;4.76;94.02;99229.52;105306;1271;61202;-76
2022/02/25 10:30:04;;;;;;;17.30;14.60;;;;;;;4.66;93.80;99232.73;105547;1271;75389;-76
2022/02/25 10:32:32;;;;;;;18.00;16.10;;;;;;;4.68;93.58;99229.46;105041;1270;70361;-76
2022/02/25 10:35:00;;;;;;;18.10;15.40;;;;;;;4.78;93.46;99232.61;105289;1271;73424;-74
2022/02/25 10:37:27;;;;;;;18.10;14.40;;;;;;;4.89;93.36;99225.31;105325;1271;61583;-74
2022/02/25 10:39:54;;;;;;;20.50;15.60;;;;;;;4.99;93.09;99226.67;105308;1269;61262;-75
2022/02/25 10:42:23;;;;;;;19.60;15.10;;;;;;;5.08;93.00;99229.30;105347;1271;75313;-74
2022/02/25 10:44:57;;;;;;;19.00;16.50;;;;;;;5.12;92.56;99226.48;105360;1271;69242;-74
2022/02/25 10:47:27;;;;;;;17.90;15.40;;;;;;;5.22;92.42;99227.67;105470;1270;73160;-75
2022/02/25 10:50:04;;;;;;;;;;;;;;;5.30;91.99;99225.93;105359;1271;61372;-74
2022/02/25 10:52:36;;;;;;;18.00;14.80;;;;;;;5.42;91.80;99222.23;105354;1271;61282;-74
2022/02/25 10:55:10;;;;;;;16.60;13.90;;;;;;;5.58;91.34;99226.15;105351;1271;76308;-74
2022/02/25 10:57:36;;;;;;;14.90;12.00;;;;;;;5.66;90.78;99224.90;105307;1269;68749;-74
2022/02/25 11:00:08;;;;;;;17.70;13.40;;;;;;;5.67;90.07;99223.64;105316;1270;61276;-74
2022/02/25 11:02:37;;;;;;;14.90;12.50;;;;;;;5.73;90.24;99223.23;105220;1271;61410;-74
2022/02/25 11:05:05;;;;;;;13.90;11.90;;;;;;;5.85;89.76;99219.53;105470;1270;61987;-75
2022/02/25 11:07:34;;;;;;;15.80;12.40;;;;;;;5.90;89.39;99223.01;105365;1271;74389;-73
2022/02/25 11:10:01;;;;;;;15.90;12.50;;;;;;;5.87;88.95;99227.85;105426;1271;70737;-75
2022/02/25 11:12:31;;;;;;;15.30;11.90;;;;;;;5.87;88.84;99230.20;105330;1271;73159;-75
2022/02/25 11:14:58;;;;;;;15.60;13.50;;;;;;;5.97;89.00;99230.48;105327;1271;61387;-75
2022/02/25 11:17:25;;;;;;;16.10;14.00;;;;;;;6.01;88.78;99229.08;105324;1271;61299;-75
2022/02/25 11:19:57;;;;;;;17.00;14.20;;;;;;;6.02;89.14;99224.09;105328;1271;75180;-75
2022/02/25 11:22:25;;;;;;;19.10;14.10;;;;;;;6.06;89.18;99222.29;105308;1271;69408;-75
2022/02/25 11:24:52;;;;;;;19.80;15.20;;;;;;;6.13;88.80;99221.48;105369;1270;73297;-75
2022/02/25 11:27:19;;;;;;;21.00;15.10;;;;;;;6.26;88.37;99216.98;105311;1270;61242;-76
2022/02/25 11:30:03;;;;;;;20.40;14.50;;;;;;;6.29;88.03;99220.39;105312;1270;61369;-74
2022/02/25 11:32:36;;;;;;;17.80;12.90;;;;;;;6.31;87.63;99223.10;105359;1271;75270;-74
2022/02/25 11:35:15;;;;;;;22.30;15.10;;;;;;;6.28;87.27;99223.06;105346;1271;69639;-76